Fearrington Village, North Carolina
Current Conditions -  °F | °C
As of 9:35 PM on Wednesday 26 Nov 2014 (Local Time) from KTTA Reporting Station
Haze Haze  
Wind Chill: 35°   Ceiling: 100
Heat Index: 35°   Visibility: 1mi
Dew Point: 35°   Wind: 0mph
Humidity: 100%   Direction: NA
Pressure: 30.05"   Gusts: NA
Location:  35.7517°N, 79.2325°W
Report Text: KTTA 270235Z AUTO 00000KT 1SM BR BKN001 02/02 A3005 RMK AO2 T00160016
Loading
Personal Weather Stations






























Interactive Weather Map New forecast layout! Learn more

10-Day Weather Forecast

Advertisements
Track Severe Weather on mobile